Time;durP1;ratioP1;P1;durP2;ratioP2;P2;SDS_P1;SDS_P2;PMS_P1;PMS_P2;Temp;Humidity;BMP_temperature;BMP_pressure;BME280_temperature;BME280_humidity;BME280_pressure;Samples;Min_cycle;Max_cycle;Signal;HPM_P1;HPM_P2
2023/08/02 00:01:44;;;;;;;;;2.00;2.00;;;;;20.45;71.16;99815.34;5036878;28;45492;-71
2023/08/02 00:04:09;;;;;;;;;3.75;2.50;;;;;20.53;71.33;99815.00;5035612;28;45531;-71
2023/08/02 00:06:35;;;;;;;;;1.00;1.00;;;;;20.38;71.34;99798.38;5037040;28;45230;-70
2023/08/02 00:09:00;;;;;;;;;2.00;1.00;;;;;20.45;71.68;99797.28;5036100;28;59652;-71
2023/08/02 00:11:25;;;;;;;;;1.50;1.50;;;;;20.01;71.78;99729.16;5036136;28;59618;-71
2023/08/02 00:13:50;;;;;;;;;1.00;1.00;;;;;20.26;72.26;99777.59;5036758;28;45448;-72
2023/08/02 00:16:16;;;;;;;;;1.00;1.00;;;;;20.39;72.01;99786.53;5040135;28;48591;-71
2023/08/02 00:18:41;;;;;;;;;2.25;2.25;;;;;20.36;72.52;99783.25;5039865;28;53335;-71
2023/08/02 00:21:06;;;;;;;;;1.00;1.00;;;;;20.29;72.50;99781.72;5040144;28;45404;-71
2023/08/02 00:23:32;;;;;;;;;1.00;1.00;;;;;20.15;72.77;99754.09;5039969;28;48747;-71
2023/08/02 00:25:58;;;;;;;;;1.25;1.25;;;;;20.12;73.13;99754.53;5040448;28;45590;-72
2023/08/02 00:28:23;;;;;;;;;0.00;0.00;;;;;20.10;73.30;99745.88;5039745;28;46572;-71
2023/08/02 00:30:48;;;;;;;;;1.00;1.00;;;;;20.09;73.43;99738.81;5039872;28;49013;-71
2023/08/02 00:33:14;;;;;;;;;0.75;0.00;;;;;20.14;73.51;99752.44;5040338;28;45218;-71
2023/08/02 00:35:44;;;;;;;;;0.50;0.50;;;;;20.17;73.42;99754.66;5040388;28;45348;-71
2023/08/02 00:38:09;;;;;;;;;1.00;1.00;;;;;19.97;73.90;99714.50;5040096;28;45725;-71
2023/08/02 00:40:35;;;;;;;;;1.25;0.00;;;;;19.98;73.74;99718.84;5039929;28;45449;-71
2023/08/02 00:43:00;;;;;;;;;1.00;0.00;;;;;20.07;73.89;99719.34;5039797;28;45174;-71
2023/08/02 00:45:25;;;;;;;;;0.25;0.00;;;;;19.94;74.07;99703.34;5038826;28;45478;-71
2023/08/02 00:47:51;;;;;;;;;0.00;0.00;;;;;20.02;74.13;99705.69;5039796;28;45590;-71
2023/08/02 00:50:16;;;;;;;;;0.00;0.00;;;;;19.92;74.34;99683.88;5039830;28;45503;-71
2023/08/02 00:52:42;;;;;;;;;0.00;0.00;;;;;19.97;74.27;99679.41;5039831;28;45298;-71
2023/08/02 00:55:07;;;;;;;;;0.00;0.00;;;;;19.86;74.45;99649.75;5040076;28;45177;-71
2023/08/02 00:57:32;;;;;;;;;0.00;0.00;;;;;20.02;74.49;99666.09;5039440;28;46333;-71
2023/08/02 00:59:58;;;;;;;;;0.50;0.50;;;;;20.00;74.99;99651.16;5039655;28;45302;-71
2023/08/02 01:02:24;;;;;;;;;0.00;0.00;;;;;19.89;75.23;99636.59;5039085;28;59994;-70
2023/08/02 01:04:49;;;;;;;;;0.00;0.00;;;;;19.97;75.16;99648.91;5039972;28;45517;-73
2023/08/02 01:07:24;;;;;;;;;0.00;0.00;;;;;19.97;75.29;99649.75;5039619;28;46640;-71
2023/08/02 01:10:00;;;;;;;;;0.00;0.00;;;;;19.98;75.16;99634.38;5039448;28;45379;-71
2023/08/02 01:12:29;;;;;;;;;0.00;0.00;;;;;19.60;75.35;99565.47;5039446;28;45329;-71
2023/08/02 01:14:57;;;;;;;;;0.00;0.00;;;;;19.93;75.35;99627.00;5039706;28;45345;-72
2023/08/02 01:17:25;;;;;;;;;0.00;0.00;;;;;19.86;75.78;99614.69;5039273;28;45603;-72
2023/08/02 01:19:50;;;;;;;;;0.00;0.00;;;;;19.88;76.20;99608.00;5039382;28;45543;-72
2023/08/02 01:22:15;;;;;;;;;0.00;0.00;;;;;19.67;76.10;99568.91;5039534;28;45265;-72
2023/08/02 01:24:41;;;;;;;;;0.00;0.00;;;;;19.89;75.96;99590.75;5021131;28;45526;-72
2023/08/02 01:27:13;;;;;;;;;0.00;0.00;;;;;19.88;75.87;99585.59;5039033;28;45584;-72
2023/08/02 01:29:45;;;;;;;;;0.00;0.00;;;;;19.85;76.66;99572.56;5038927;28;45280;-72
2023/08/02 01:32:11;;;;;;;;;0.00;0.00;;;;;19.69;76.57;99544.41;5039364;28;45272;-71
2023/08/02 01:34:38;;;;;;;;;0.00;0.00;;;;;19.45;76.73;99506.59;5039506;28;45444;-72
2023/08/02 01:37:03;;;;;;;;;0.00;0.00;;;;;19.65;76.96;99521.66;5039024;28;46685;-72
2023/08/02 01:39:29;;;;;;;;;1.00;1.00;;;;;19.79;77.24;99538.41;5038959;28;45212;-72
2023/08/02 01:41:54;;;;;;;;;0.00;0.00;;;;;19.77;76.44;99535.13;5039123;28;45344;-72
2023/08/02 01:44:19;;;;;;;;;0.00;0.00;;;;;19.74;77.06;99528.34;5020912;28;45376;-72
2023/08/02 01:46:45;;;;;;;;;0.00;0.00;;;;;19.83;76.95;99528.84;5038360;28;50692;-72
2023/08/02 01:49:10;;;;;;;;;0.00;0.00;;;;;19.75;77.13;99533.50;5038943;28;45474;-72
2023/08/02 01:51:35;;;;;;;;;0.00;0.00;;;;;19.71;77.04;99508.06;5038883;28;45726;-70
2023/08/02 01:54:00;;;;;;;;;0.00;0.00;;;;;19.83;76.96;99518.03;5039080;28;45526;-71
2023/08/02 01:56:26;;;;;;;;;0.00;0.00;;;;;19.42;77.11;99449.59;5038714;28;45649;-71
2023/08/02 01:58:51;;;;;;;;;1.00;0.00;;;;;19.85;77.28;99515.94;5038578;28;45338;-71
2023/08/02 02:01:16;;;;;;;;;1.00;0.00;;;;;19.78;77.10;99501.72;5038331;28;47198;-71
2023/08/02 02:03:42;;;;;;;;;0.50;0.00;;;;;19.81;77.30;99506.63;5020895;28;45534;-71
2023/08/02 02:06:07;;;;;;;;;0.00;0.00;;;;;19.87;77.11;99503.03;5038491;28;47225;-71
2023/08/02 02:08:32;;;;;;;;;0.00;0.00;;;;;19.85;77.23;99505.13;5038753;28;45507;-72
2023/08/02 02:10:58;;;;;;;;;0.00;0.00;;;;;19.87;77.06;99497.63;5038839;28;46120;-71
2023/08/02 02:13:24;;;;;;;;;0.00;0.00;;;;;19.87;77.25;99497.63;5038434;28;45607;-72
2023/08/02 02:15:50;;;;;;;;;0.00;0.00;;;;;19.74;77.27;99475.22;5038335;28;46064;-70
2023/08/02 02:18:16;;;;;;;;;0.00;0.00;;;;;19.83;77.27;99489.19;5038294;28;45412;-70
2023/08/02 02:20:41;;;;;;;;;1.00;1.00;;;;;19.90;77.48;99478.28;5038400;28;45403;-70
2023/08/02 02:23:06;;;;;;;;;0.00;0.00;;;;;19.88;77.38;99478.50;5038088;28;52836;-70
2023/08/02 02:25:32;;;;;;;;;0.00;0.00;;;;;19.92;77.44;99470.78;5038232;28;46718;-71
2023/08/02 02:27:57;;;;;;;;;0.00;0.00;;;;;19.86;77.71;99444.75;5038248;28;45324;-71
2023/08/02 02:30:23;;;;;;;;;0.00;0.00;;;;;19.93;77.65;99453.53;5038309;28;45496;-71
2023/08/02 02:32:48;;;;;;;;;0.50;0.50;;;;;19.81;77.79;99428.44;5038718;28;45334;-72
2023/08/02 02:35:14;;;;;;;;;0.00;0.00;;;;;19.88;77.98;99440.75;5038106;28;46078;-72
2023/08/02 02:37:39;;;;;;;;;0.25;0.00;;;;;19.77;78.29;99421.88;5019249;28;46341;-72
2023/08/02 02:40:06;;;;;;;;;0.00;0.00;;;;;19.88;78.09;99426.44;5038624;28;45553;-72
2023/08/02 02:42:31;;;;;;;;;0.50;0.50;;;;;19.93;78.37;99421.16;5038308;28;45238;-71
2023/08/02 02:44:56;;;;;;;;;0.00;0.00;;;;;19.49;78.52;99337.13;5038036;28;45600;-71
2023/08/02 02:47:22;;;;;;;;;0.75;0.75;;;;;19.78;78.62;99381.19;5037252;28;66957;-72
2023/08/02 02:49:47;;;;;;;;;0.00;0.00;;;;;19.84;79.11;99390.22;5037961;28;45717;-73
2023/08/02 02:52:12;;;;;;;;;0.00;0.00;;;;;19.89;79.44;99384.94;5036366;28;57676;-72
2023/08/02 02:54:38;;;;;;;;;1.00;0.00;;;;;19.96;79.16;99399.09;5037732;28;46524;-71
2023/08/02 02:57:03;;;;;;;;;1.00;0.00;;;;;19.96;79.49;99394.53;5037817;28;45231;-70
2023/08/02 02:59:28;;;;;;;;;0.00;0.00;;;;;19.87;79.45;99358.19;5037739;28;45413;-71
2023/08/02 03:01:54;;;;;;;;;0.50;0.50;;;;;19.94;79.75;99379.63;5038045;28;45587;-72
2023/08/02 03:04:19;;;;;;;;;0.50;0.50;;;;;19.90;79.83;99351.50;5037230;28;58974;-72
2023/08/02 03:06:44;;;;;;;;;0.00;0.00;;;;;19.80;80.04;99329.69;5037703;28;45516;-72
2023/08/02 03:09:10;;;;;;;;;1.00;0.00;;;;;19.90;79.86;99328.03;5037528;28;45807;-72
2023/08/02 03:11:35;;;;;;;;;0.00;0.00;;;;;20.02;79.87;99346.88;5037465;28;50759;-72
2023/08/02 03:14:01;;;;;;;;;0.00;0.00;;;;;19.99;79.94;99336.56;5037224;28;49531;-72
2023/08/02 03:16:26;;;;;;;;;0.00;0.00;;;;;19.97;79.82;99328.72;5037648;28;45491;-72
2023/08/02 03:18:54;;;;;;;;;1.00;0.00;;;;;19.96;79.99;99313.59;5037918;28;45444;-72
2023/08/02 03:21:19;;;;;;;;;1.25;1.25;;;;;20.01;80.18;99323.66;5037656;28;45333;-72
2023/08/02 03:23:45;;;;;;;;;0.00;0.00;;;;;20.05;80.55;99322.13;5037405;28;45743;-72
2023/08/02 03:26:10;;;;;;;;;0.00;0.00;;;;;20.09;80.61;99319.78;5037441;28;45360;-72
2023/08/02 03:28:36;;;;;;;;;0.25;0.25;;;;;20.04;80.67;99304.31;5037200;28;45300;-72
2023/08/02 03:31:01;;;;;;;;;0.00;0.00;;;;;20.12;80.82;99314.72;5037494;28;45700;-72
2023/08/02 03:33:26;;;;;;;;;0.00;0.00;;;;;20.12;81.01;99316.59;5037142;28;46481;-72
2023/08/02 03:35:51;;;;;;;;;1.00;0.00;;;;;20.12;81.13;99312.00;5037180;28;45360;-72
2023/08/02 03:38:17;;;;;;;;;0.00;0.00;;;;;20.11;81.14;99299.59;5035778;28;45407;-71
2023/08/02 03:40:43;;;;;;;;;1.00;1.00;;;;;20.08;81.08;99291.97;5036696;28;58183;-71
2023/08/02 03:43:08;;;;;;;;;0.50;0.00;;;;;20.18;81.33;99304.81;5036816;28;46406;-71
2023/08/02 03:45:34;;;;;;;;;0.00;0.00;;;;;19.99;81.50;99266.44;5036695;28;59137;-72
2023/08/02 03:47:59;;;;;;;;;0.00;0.00;;;;;20.15;81.88;99289.13;5036759;28;48095;-72
2023/08/02 03:50:24;;;;;;;;;1.00;0.00;;;;;20.19;81.76;99288.38;5037465;28;45488;-72
2023/08/02 03:52:50;;;;;;;;;0.00;0.00;;;;;20.22;81.40;99279.00;5036906;28;46469;-72
2023/08/02 03:55:15;;;;;;;;;0.00;0.00;;;;;20.12;81.31;99266.16;5037193;28;45281;-72
2023/08/02 03:57:41;;;;;;;;;0.00;0.00;;;;;20.24;81.72;99271.50;5036910;28;45558;-73
2023/08/02 04:00:07;;;;;;;;;0.00;0.00;;;;;20.22;81.95;99271.75;5037250;28;45234;-72
2023/08/02 04:02:32;;;;;;;;;1.00;0.00;;;;;20.12;82.02;99252.66;5036552;28;46691;-72
2023/08/02 04:04:58;;;;;;;;;1.00;0.00;;;;;20.29;82.14;99275.09;5036496;28;56259;-72
2023/08/02 04:07:23;;;;;;;;;0.00;0.00;;;;;20.03;82.07;99227.16;5036595;28;48638;-72
2023/08/02 04:09:48;;;;;;;;;0.00;0.00;;;;;20.33;81.96;99272.72;5037002;28;45480;-72
2023/08/02 04:12:17;;;;;;;;;0.00;0.00;;;;;20.23;82.59;99259.88;5018651;28;46804;-72
2023/08/02 04:14:43;;;;;;;;;0.00;0.00;;;;;20.17;82.67;99239.25;5036418;28;45524;-72
2023/08/02 04:17:08;;;;;;;;;0.00;0.00;;;;;20.30;82.65;99254.31;5018850;28;45297;-72
2023/08/02 04:19:33;;;;;;;;;0.00;0.00;;;;;19.91;82.48;99192.13;5036318;28;52076;-73
2023/08/02 04:21:58;;;;;;;;;0.00;0.00;;;;;20.27;82.69;99250.22;5036476;28;45610;-72
2023/08/02 04:24:24;;;;;;;;;0.00;0.00;;;;;20.33;83.15;99257.34;5036671;28;45348;-72
2023/08/02 04:26:49;;;;;;;;;0.75;0.75;;;;;20.36;83.10;99264.94;5036842;28;45396;-73
2023/08/02 04:29:14;;;;;;;;;0.00;0.00;;;;;20.29;83.12;99242.72;5035004;28;46104;-73
2023/08/02 04:31:40;;;;;;;;;0.00;0.00;;;;;19.74;83.31;99138.16;5036391;28;45637;-72
2023/08/02 04:34:05;;;;;;;;;0.75;0.00;;;;;20.38;83.27;99239.59;5035828;28;70391;-71
2023/08/02 04:36:31;;;;;;;;;0.00;0.00;;;;;20.32;83.32;99226.03;5036602;28;45228;-71
2023/08/02 04:38:56;;;;;;;;;0.00;0.00;;;;;20.43;83.42;99231.63;5036792;28;45478;-70
2023/08/02 04:41:21;;;;;;;;;1.00;0.00;;;;;20.40;83.22;99240.16;5036457;28;45370;-72
2023/08/02 04:43:47;;;;;;;;;0.00;0.00;;;;;20.47;83.72;99239.00;5036215;28;45215;-71
2023/08/02 04:46:13;;;;;;;;;0.00;0.00;;;;;20.47;83.50;99228.19;5036273;28;45201;-71
2023/08/02 04:48:38;;;;;;;;;0.00;0.00;;;;;20.36;83.83;99213.66;5036573;28;45422;-72
2023/08/02 04:51:10;;;;;;;;;0.00;0.00;;;;;20.42;83.95;99213.78;5035743;28;60361;-71
2023/08/02 04:53:36;;;;;;;;;0.00;0.00;;;;;20.40;84.29;99210.47;5036093;28;45537;-71
2023/08/02 04:56:01;;;;;;;;;0.00;0.00;;;;;20.55;84.07;99218.84;5036180;28;45675;-73
2023/08/02 04:58:26;;;;;;;;;0.00;0.00;;;;;20.26;84.59;99178.44;5036311;28;45298;-73
2023/08/02 05:00:51;;;;;;;;;0.00;0.00;;;;;20.51;84.65;99220.41;5037623;28;45519;-73
2023/08/02 05:03:17;;;;;;;;;1.00;0.00;;;;;20.55;84.76;99229.66;5039143;28;58961;-73
2023/08/02 05:05:42;;;;;;;;;0.50;0.00;;;;;20.49;84.76;99195.56;5039657;28;45477;-72
2023/08/02 05:08:07;;;;;;;;;0.50;0.00;;;;;20.43;84.90;99189.25;5039939;28;45281;-73
2023/08/02 05:10:33;;;;;;;;;0.00;0.00;;;;;20.47;84.96;99186.88;5039301;28;46205;-73
2023/08/02 05:12:58;;;;;;;;;0.00;0.00;;;;;20.58;85.30;99210.25;5038545;28;58511;-72
2023/08/02 05:15:23;;;;;;;;;0.00;0.00;;;;;20.57;85.07;99197.81;5039803;28;45261;-72
2023/08/02 05:17:49;;;;;;;;;0.00;0.00;;;;;20.62;85.13;99204.16;5039327;28;45234;-72
2023/08/02 05:20:14;;;;;;;;;0.00;0.00;;;;;20.65;85.02;99197.44;5039229;28;45746;-72
2023/08/02 05:22:39;;;;;;;;;0.00;0.00;;;;;20.64;85.42;99185.00;5039391;28;45412;-72
2023/08/02 05:25:06;;;;;;;;;0.00;0.00;;;;;20.58;85.63;99158.97;5039824;28;45451;-72
2023/08/02 05:27:32;;;;;;;;;0.00;0.00;;;;;20.61;85.88;99177.34;5039267;28;45282;-72
2023/08/02 05:29:57;;;;;;;;;0.00;0.00;;;;;19.98;85.77;99073.28;5037929;28;69209;-73
2023/08/02 05:32:22;;;;;;;;;0.00;0.00;;;;;20.61;85.84;99175.47;5039229;28;45466;-72
2023/08/02 05:34:48;;;;;;;;;1.00;0.00;;;;;20.31;85.73;99113.72;5038753;28;52595;-71
2023/08/02 05:37:13;;;;;;;;;0.00;0.00;;;;;20.67;85.63;99157.50;5039404;28;45504;-71
2023/08/02 05:39:38;;;;;;;;;0.00;0.00;;;;;20.73;85.30;99156.47;5039041;28;45875;-72
2023/08/02 05:42:04;;;;;;;;;0.00;0.00;;;;;20.69;85.63;99158.06;5038746;28;50359;-73
2023/08/02 05:44:29;;;;;;;;;1.00;0.00;;;;;20.75;85.55;99165.16;5038816;28;45414;-72
2023/08/02 05:46:55;;;;;;;;;0.00;0.00;;;;;20.67;85.79;99149.38;5039047;28;45395;-72
2023/08/02 05:49:20;;;;;;;;;0.00;0.00;;;;;20.78;85.78;99161.13;5039014;28;45715;-72
2023/08/02 05:51:45;;;;;;;;;0.00;0.00;;;;;20.74;85.75;99152.72;5038470;28;54752;-72
2023/08/02 05:54:11;;;;;;;;;1.00;1.00;;;;;20.76;85.93;99147.06;5038756;28;45494;-72
2023/08/02 05:56:36;;;;;;;;;0.00;0.00;;;;;20.30;85.90;99079.72;5038676;28;45243;-72
2023/08/02 05:59:01;;;;;;;;;0.00;0.00;;;;;20.83;85.84;99158.53;5038640;28;45517;-73
2023/08/02 06:01:27;;;;;;;;;0.00;0.00;;;;;20.73;85.85;99129.47;5038527;28;45377;-72
2023/08/02 06:03:52;;;;;;;;;0.00;0.00;;;;;20.90;85.94;99157.25;5038206;28;55402;-72
2023/08/02 06:06:17;;;;;;;;;0.00;0.00;;;;;20.85;85.88;99132.91;5038654;28;45468;-72
2023/08/02 06:08:45;;;;;;;;;0.00;0.00;;;;;20.93;85.52;99145.13;5038546;28;46670;-72
2023/08/02 06:11:10;;;;;;;;;1.50;0.00;;;;;20.94;85.59;99149.47;5038442;28;45393;-72
2023/08/02 06:13:36;;;;;;;;;0.50;0.50;;;;;20.92;86.31;99138.91;5038282;28;45398;-72
2023/08/02 06:16:01;;;;;;;;;0.00;0.00;;;;;20.98;85.86;99144.38;5038508;28;45336;-72
2023/08/02 06:18:26;;;;;;;;;0.00;0.00;;;;;20.83;85.81;99108.03;5038348;28;45601;-72
2023/08/02 06:20:52;;;;;;;;;0.00;0.00;;;;;20.95;86.10;99133.00;5036804;28;45431;-72
2023/08/02 06:23:17;;;;;;;;;0.00;0.00;;;;;20.98;86.01;99120.88;5038191;28;46067;-71
2023/08/02 06:25:42;;;;;;;;;1.50;0.00;;;;;20.81;85.85;99082.31;5038575;28;45529;-72
2023/08/02 06:28:08;;;;;;;;;0.25;0.25;;;;;21.01;85.70;99103.34;5037799;28;45966;-73
2023/08/02 06:30:33;;;;;;;;;0.00;0.00;;;;;21.03;85.54;99101.25;5037836;28;53840;-72
2023/08/02 06:32:58;;;;;;;;;0.00;0.00;;;;;20.99;86.06;99102.78;5038295;28;45515;-72
2023/08/02 06:35:24;;;;;;;;;0.00;0.00;;;;;21.07;85.92;99129.38;5038460;28;45312;-71
2023/08/02 06:37:49;;;;;;;;;0.00;0.00;;;;;21.09;86.02;99097.50;5037946;28;48555;-72
2023/08/02 06:40:14;;;;;;;;;0.00;0.00;;;;;21.01;86.09;99095.25;5038000;28;45501;-74
2023/08/02 06:42:40;;;;;;;;;0.00;0.00;;;;;21.07;86.14;99119.38;5037591;28;45356;-73
2023/08/02 06:45:06;;;;;;;;;0.25;0.25;;;;;21.11;86.03;99114.28;5038030;28;45325;-72
2023/08/02 06:47:31;;;;;;;;;0.50;0.00;;;;;21.02;86.11;99083.38;5036282;28;46500;-71
2023/08/02 06:49:56;;;;;;;;;0.00;0.00;;;;;21.16;85.38;99114.34;5037350;28;51253;-72
2023/08/02 06:52:21;;;;;;;;;0.00;0.00;;;;;21.12;85.69;99102.41;5037192;28;62077;-72
2023/08/02 06:54:51;;;;;;;;;0.00;0.00;;;;;20.80;85.11;99026.66;5037783;28;45337;-71
2023/08/02 06:57:16;;;;;;;;;0.00;0.00;;;;;20.86;84.88;99029.19;5037278;28;46491;-73
2023/08/02 06:59:42;;;;;;;;;0.00;0.00;;;;;21.14;85.33;99065.94;5037016;28;51103;-73
2023/08/02 07:02:07;;;;;;;;;0.00;0.00;;;;;21.09;85.78;99084.00;5037069;28;52161;-70
2023/08/02 07:04:32;;;;;;;;;0.00;0.00;;;;;21.12;86.17;99081.59;5037851;28;45634;-72
2023/08/02 07:06:58;;;;;;;;;0.00;0.00;;;;;21.14;85.84;99097.56;5037453;28;45397;-72
2023/08/02 07:09:24;;;;;;;;;0.00;0.00;;;;;21.15;85.73;99085.69;5037244;28;45498;-73
2023/08/02 07:11:50;;;;;;;;;0.00;0.00;;;;;21.07;85.51;99076.16;5037629;28;45416;-73
2023/08/02 07:14:15;;;;;;;;;0.50;0.50;;;;;21.27;84.63;99086.41;5037237;28;45471;-72
2023/08/02 07:16:40;;;;;;;;;0.00;0.00;;;;;21.31;84.41;99071.31;5037314;28;45541;-72
2023/08/02 07:19:05;;;;;;;;;0.00;0.00;;;;;21.36;82.51;99082.16;5037540;28;45325;-73
2023/08/02 07:21:31;;;;;;;;;0.00;0.00;;;;;21.43;82.60;99069.28;5037469;28;45471;-72
2023/08/02 07:23:56;;;;;;;;;0.00;0.00;;;;;21.60;83.35;99063.72;5036984;28;45352;-73
2023/08/02 07:26:24;;;;;;;;;0.00;0.00;;;;;21.73;83.14;99047.09;5037132;28;45545;-73
2023/08/02 07:28:49;;;;;;;;;0.00;0.00;;;;;21.83;81.38;99043.66;5036934;28;45236;-71
2023/08/02 07:31:14;;;;;;;;;0.00;0.00;;;;;22.03;82.56;99033.00;5036915;28;45366;-72
2023/08/02 07:33:40;;;;;;;;;1.50;1.50;;;;;22.42;81.01;99071.41;5037515;28;45482;-72
2023/08/02 07:36:13;;;;;;;;;0.00;0.00;;;;;22.61;81.16;99055.53;5037123;28;45795;-72
2023/08/02 07:38:38;;;;;;;;;0.00;0.00;;;;;22.99;79.62;99075.25;5037074;28;45293;-72
2023/08/02 07:41:04;;;;;;;;;0.00;0.00;;;;;23.20;77.75;99049.81;5036435;28;61168;-73
2023/08/02 07:43:30;;;;;;;;;0.00;0.00;;;;;23.47;76.36;99059.66;5036968;28;45407;-73
2023/08/02 07:45:55;;;;;;;;;0.00;0.00;;;;;23.69;73.27;99062.97;5036936;28;46274;-71
2023/08/02 07:48:20;;;;;;;;;0.00;0.00;;;;;23.84;72.52;99060.25;5036258;28;62498;-71
2023/08/02 07:50:46;;;;;;;;;0.00;0.00;;;;;23.89;71.51;99051.28;5036848;28;45426;-72
2023/08/02 07:53:11;;;;;;;;;0.00;0.00;;;;;23.89;70.32;99059.44;5035799;28;45542;-72
2023/08/02 07:55:36;;;;;;;;;0.00;0.00;;;;;23.87;69.69;99053.47;5036810;28;46296;-73
2023/08/02 07:58:02;;;;;;;;;0.00;0.00;;;;;23.47;70.74;99005.41;5036020;28;65386;-71
2023/08/02 08:00:27;;;;;;;;;0.00;0.00;;;;;23.85;69.99;99045.59;5036691;28;45486;-72
2023/08/02 08:02:52;;;;;;;;;0.00;0.00;;;;;23.92;69.98;99078.69;5037172;28;45403;-72
2023/08/02 08:05:17;;;;;;;;;0.00;0.00;;;;;23.95;70.04;99055.63;5036129;28;55841;-72
2023/08/02 08:07:43;;;;;;;;;0.00;0.00;;;;;23.85;69.39;99045.59;5036561;28;45313;-71
2023/08/02 08:10:08;;;;;;;;;0.50;0.00;;;;;23.78;69.70;99049.66;5036556;28;45821;-72
2023/08/02 08:12:35;;;;;;;;;0.00;0.00;;;;;23.84;69.88;99048.59;5036604;28;45335;-72
2023/08/02 08:15:01;;;;;;;;;0.00;0.00;;;;;23.83;69.71;99053.19;5011818;28;46199;-73
2023/08/02 08:17:26;;;;;;;;;0.00;0.00;;;;;23.69;69.79;99030.41;4996607;28;45432;-71
2023/08/02 08:19:51;;;;;;;;;0.00;0.00;;;;;23.78;69.84;99055.88;4996334;28;55821;-72
2023/08/02 08:22:18;;;;;;;;;0.00;0.00;;;;;23.88;69.92;99071.38;4997224;28;45331;-72
2023/08/02 08:24:44;;;;;;;;;0.00;0.00;;;;;23.63;69.99;99004.34;4996567;28;45879;-73
2023/08/02 08:27:09;;;;;;;;;0.00;0.00;;;;;24.06;69.86;99054.53;4996379;28;45571;-72
2023/08/02 08:29:34;;;;;;;;;0.00;0.00;;;;;24.06;69.32;99040.16;4996615;28;45193;-72
2023/08/02 08:31:59;;;;;;;;;0.00;0.00;;;;;24.19;69.21;99045.81;4997106;28;45254;-72
2023/08/02 08:34:25;;;;;;;;;0.50;0.50;;;;;24.19;68.66;99050.44;4995827;28;62228;-72
2023/08/02 08:36:50;;;;;;;;;0.00;0.00;;;;;24.14;68.20;99036.88;4999737;28;45531;-72
2023/08/02 08:39:15;;;;;;;;;0.00;0.00;;;;;24.23;68.08;99014.31;5000100;28;45306;-73
2023/08/02 08:41:41;;;;;;;;;0.00;0.00;;;;;24.36;67.57;99037.38;5000202;28;45247;-73
2023/08/02 08:44:06;;;;;;;;;1.00;1.00;;;;;24.39;67.15;99028.69;4999597;28;48006;-72
2023/08/02 08:46:33;;;;;;;;;0.00;0.00;;;;;24.53;67.33;99029.75;4999590;28;45464;-73
2023/08/02 08:48:59;;;;;;;;;0.00;0.00;;;;;24.64;67.04;99025.09;5014962;28;45650;-72
2023/08/02 08:51:25;;;;;;;;;1.00;1.00;;;;;24.63;66.28;99019.91;4998385;28;45374;-72
2023/08/02 08:53:51;;;;;;;;;0.00;0.00;;;;;24.80;65.92;99023.09;4998029;28;47706;-72
2023/08/02 08:56:23;;;;;;;;;0.00;0.00;;;;;24.74;65.30;99007.91;4999580;28;45523;-72
2023/08/02 08:58:52;;;;;;;;;0.00;0.00;;;;;24.94;65.09;99020.59;4997830;28;45428;-72
2023/08/02 09:01:18;;;;;;;;;1.00;0.00;;;;;24.91;63.54;99002.13;4998477;28;45592;-72
2023/08/02 09:03:45;;;;;;;;;0.00;0.00;;;;;24.88;63.16;98970.88;4999444;28;45617;-72
2023/08/02 09:06:13;;;;;;;;;0.00;0.00;;;;;25.10;63.11;99001.22;4999325;28;45369;-72
2023/08/02 09:08:43;;;;;;;;;0.00;0.00;;;;;25.15;62.55;98997.66;4999570;28;45577;-71
2023/08/02 09:11:08;;;;;;;;;1.00;0.00;;;;;25.15;62.46;98987.59;4998549;28;45456;-72
2023/08/02 09:13:34;;;;;;;;;0.00;0.00;;;;;25.33;61.25;98999.72;5014981;28;45853;-72
2023/08/02 09:16:09;;;;;;;;;0.00;0.00;;;;;25.40;60.54;99007.53;5038939;28;50648;-71
2023/08/02 09:18:45;;;;;;;;;0.00;0.00;;;;;25.42;59.16;98997.19;5039005;28;45228;-72
2023/08/02 09:21:19;;;;;;;;;0.00;0.00;;;;;25.48;59.20;99009.69;5039323;28;45490;-73
2023/08/02 09:23:55;;;;;;;;;0.00;0.00;;;;;25.46;58.69;98998.28;5020311;28;49641;-73
2023/08/02 09:26:21;;;;;;;;;0.00;0.00;;;;;25.31;59.44;98968.44;5039108;28;45421;-72
2023/08/02 09:29:04;;;;;;;;;0.00;0.00;;;;;25.21;58.86;98944.03;5020937;28;45426;-71
2023/08/02 09:31:32;;;;;;;;;0.00;0.00;;;;;25.62;59.09;99024.25;5039065;28;45315;-71
2023/08/02 09:33:58;;;;;;;;;0.00;0.00;;;;;25.53;57.69;98966.09;5038713;28;46609;-71
2023/08/02 09:36:31;;;;;;;;;0.25;0.25;;;;;25.48;57.68;98996.88;5038817;28;45250;-72
2023/08/02 09:39:11;;;;;;;;;0.00;0.00;;;;;25.42;55.93;99002.63;5038705;28;45455;-71
2023/08/02 09:41:36;;;;;;;;;0.25;0.25;;;;;25.37;56.61;99016.28;5039024;28;45314;-72
2023/08/02 09:44:02;;;;;;;;;0.00;0.00;;;;;25.30;56.25;98980.44;5036803;28;47415;-72
2023/08/02 09:46:29;;;;;;;;;0.00;0.00;;;;;25.38;55.35;98986.06;5038119;28;45443;-71
2023/08/02 09:48:56;;;;;;;;;0.00;0.00;;;;;25.40;54.00;99002.09;5038572;28;45246;-72
2023/08/02 09:51:21;;;;;;;;;0.00;0.00;;;;;25.37;52.86;98989.06;5038722;28;45607;-72
2023/08/02 09:53:55;;;;;;;;;0.00;0.00;;;;;25.30;51.72;98972.28;5038369;28;45594;-72
2023/08/02 09:56:23;;;;;;;;;0.00;0.00;;;;;25.26;52.13;98992.97;5038416;28;45503;-72
2023/08/02 09:58:54;;;;;;;;;0.75;0.00;;;;;25.39;51.52;99009.47;5038230;28;45416;-71
2023/08/02 10:01:21;;;;;;;;;0.00;0.00;;;;;25.43;52.15;98985.25;5020779;28;45522;-72
2023/08/02 10:03:52;;;;;;;;;0.00;0.00;;;;;25.25;51.80;98942.41;5038149;28;45871;-73
2023/08/02 10:06:20;;;;;;;;;0.00;0.00;;;;;25.44;53.83;99022.22;5038580;28;45218;-72
2023/08/02 10:08:47;;;;;;;;;0.00;0.00;;;;;25.12;53.45;98988.16;5038177;28;45202;-73
2023/08/02 10:11:13;;;;;;;;;0.00;0.00;;;;;25.30;53.56;99026.69;5038554;28;45399;-73
2023/08/02 10:13:43;;;;;;;;;0.00;0.00;;;;;25.12;52.52;99033.59;5037736;28;45955;-73
2023/08/02 10:16:09;;;;;;;;;0.00;0.00;;;;;25.10;51.70;99033.88;5037861;28;45258;-71
2023/08/02 10:18:36;;;;;;;;;0.00;0.00;;;;;25.10;51.88;99009.38;5020207;28;45358;-72
2023/08/02 10:21:02;;;;;;;;;0.00;0.00;;;;;25.22;50.62;99024.53;5038347;28;45551;-72
2023/08/02 10:23:28;;;;;;;;;0.00;0.00;;;;;24.89;50.77;98999.69;5038001;28;45453;-70
2023/08/02 10:25:55;;;;;;;;;2.00;1.00;;;;;24.44;49.88;98883.91;5038049;28;45283;-72
2023/08/02 10:28:21;;;;;;;;;0.75;0.00;;;;;25.15;48.21;99006.63;5037916;28;45339;-72
2023/08/02 10:30:47;;;;;;;;;0.00;0.00;;;;;25.09;49.29;99026.00;5036999;28;45511;-72
2023/08/02 10:33:13;;;;;;;;;0.75;0.75;;;;;25.16;49.36;99008.25;5037796;28;45610;-71
2023/08/02 10:36:02;;;;;;;;;0.00;0.00;;;;;25.24;49.58;99017.75;5038164;28;45500;-72
2023/08/02 10:38:39;;;;;;;;;2.00;0.25;;;;;25.28;49.18;99009.81;5037794;28;45337;-72
2023/08/02 10:41:18;;;;;;;;;0.00;0.00;;;;;25.34;49.51;99016.84;5036925;28;45514;-72
2023/08/02 10:44:00;;;;;;;;;0.50;0.00;;;;;25.34;48.33;99028.53;5037357;28;45875;-72
2023/08/02 10:46:29;;;;;;;;;0.00;0.00;;;;;25.07;49.05;98992.81;5037387;28;45289;-73
2023/08/02 10:49:15;;;;;;;;;0.00;0.00;;;;;25.27;49.10;99019.09;5019840;28;45308;-70
2023/08/02 10:51:42;;;;;;;;;2.00;0.00;;;;;24.95;47.62;98976.81;5019514;28;45500;-72
2023/08/02 10:54:19;;;;;;;;;0.50;0.50;;;;;25.18;47.70;99041.41;5037431;28;45945;-71
2023/08/02 10:56:58;;;;;;;;;1.00;1.00;;;;;25.13;47.82;99019.69;5037448;28;45447;-71
2023/08/02 10:59:24;;;;;;;;;0.00;0.00;;;;;25.14;47.62;99058.59;5035116;28;45439;-71
2023/08/02 11:01:56;;;;;;;;;0.00;0.00;;;;;25.02;44.28;99026.28;5037448;28;45406;-72
2023/08/02 11:04:23;;;;;;;;;0.25;0.25;;;;;24.92;43.30;99020.88;5037594;28;46630;-72
2023/08/02 11:06:48;;;;;;;;;0.75;0.75;;;;;24.87;43.55;99045.38;5037560;28;45404;-71
2023/08/02 11:09:13;;;;;;;;;0.00;0.00;;;;;24.48;41.37;99005.31;5037348;28;45454;-71
2023/08/02 11:11:39;;;;;;;;;0.00;0.00;;;;;24.23;41.36;98965.44;5037529;28;45310;-71
2023/08/02 11:14:04;;;;;;;;;1.00;1.00;;;;;24.65;40.72;99034.06;5036525;28;45977;-71
2023/08/02 11:16:30;;;;;;;;;0.25;0.25;;;;;24.64;41.76;99040.59;5036977;28;45415;-71
2023/08/02 11:18:55;;;;;;;;;0.00;0.00;;;;;24.53;41.55;99035.16;5037377;28;45289;-74
2023/08/02 11:21:20;;;;;;;;;1.00;1.00;;;;;24.44;42.32;99014.31;5037466;28;45548;-71
2023/08/02 11:23:49;;;;;;;;;1.25;0.00;;;;;24.53;42.55;99037.88;5036872;28;46192;-71
2023/08/02 11:26:18;;;;;;;;;0.00;0.00;;;;;24.43;42.70;99029.78;5036946;28;45246;-71
2023/08/02 11:28:48;;;;;;;;;3.00;2.00;;;;;24.52;43.48;99033.53;5037059;28;45420;-71
2023/08/02 11:31:14;;;;;;;;;1.75;1.75;;;;;24.55;43.78;99040.31;5036955;28;45380;-72